FR-0040 weather

Centre Hospitalier Hotel Dieu Heliport
Le Creusot, Burgundy, France

Public forecast

Using degrees Celsius for public forecast. Weather courtesy of forecast.io.

METAR (pilot weather report)

Closest report is Saint-Yan Airport, 29.6 nm (54.9 km) SW. Retrieved 2019/09/23 18:30 UTC (7 minutes ago):

LFLN 231830Z AUTO 00000KT CAVOK 16/11 Q1018 NOSIG

TAF (pilot weather forecast)

Forecast is more than 12 hours old.

Closest forecast is Dijon-Bourgogne Airport, 38.3 nm (70.9 km) NE. Retrieved 2015/06/01 00:11 UTC (4 years ago):

TAF LFSD 010600Z 0100/0124 CNL